Time;durP1;ratioP1;P1;durP2;ratioP2;P2;SDS_P1;SDS_P2;PMS_P1;PMS_P2;Temp;Humidity;BMP_temperature;BMP_pressure;BME280_temperature;BME280_humidity;BME280_pressure;Samples;Min_cycle;Max_cycle;Signal;HPM_P1;HPM_P2
2021/10/06 02:47:03;;;;;;;12.68;5.10;;;18.60;85.70;;;;;;4988144;24;20071;-81
2021/10/06 02:49:30;;;;;;;11.60;5.90;;;18.60;85.40;;;;;;4751387;30;20235;-81
2021/10/06 02:51:55;;;;;;;10.85;6.13;;;18.70;85.10;;;;;;4736892;30;20036;-81
2021/10/06 02:54:21;;;;;;;9.98;5.93;;;18.70;85.00;;;;;;4741797;30;20032;-82
2021/10/06 02:56:47;;;;;;;9.38;6.47;;;18.60;85.30;;;;;;4753921;30;20232;-81
2021/10/06 02:59:13;;;;;;;9.73;7.18;;;18.60;85.50;;;;;;4753666;30;20236;-82
2021/10/06 03:01:38;;;;;;;10.07;7.30;;;18.60;85.30;;;;;;4738943;30;20032;-82
2021/10/06 03:04:04;;;;;;;8.50;6.30;;;18.50;85.50;;;;;;4738662;30;20063;-82
2021/10/06 03:06:30;;;;;;;9.70;7.00;;;18.50;85.60;;;;;;4770063;30;20062;-82
2021/10/06 03:08:56;;;;;;;11.27;7.18;;;18.60;86.00;;;;;;4754964;30;20048;-82
2021/10/06 03:11:23;;;;;;;8.27;6.10;;;18.60;85.70;;;;;;4739416;30;20036;-82
2021/10/06 03:13:49;;;;;;;9.90;6.35;;;18.60;85.60;;;;;;4739364;30;20040;-81
2021/10/06 03:16:15;;;;;;;8.90;6.47;;;18.70;85.50;;;;;;4738019;30;20362;-81
2021/10/06 03:18:40;;;;;;;8.40;5.97;;;18.70;85.50;;;;;;4737003;30;20061;-81
2021/10/06 03:21:06;;;;;;;8.15;5.85;;;18.80;85.50;;;;;;4721950;30;20107;-81
2021/10/06 03:23:32;;;;;;;8.85;5.75;;;18.80;85.40;;;;;;4736499;30;20044;-80
2021/10/06 03:25:57;;;;;;;7.13;5.57;;;18.80;85.40;;;;;;4721950;30;20029;-83
2021/10/06 03:28:23;;;;;;;7.20;5.30;;;18.80;84.80;;;;;;4722214;30;20036;-82
2021/10/06 03:30:49;;;;;;;6.25;4.72;;;18.80;84.50;;;;;;4736010;30;20052;-82
2021/10/06 03:33:15;;;;;;;8.52;6.28;;;18.80;84.40;;;;;;4751239;30;20044;-82
2021/10/06 03:35:41;;;;;;;12.07;7.63;;;18.90;84.50;;;;;;4736570;30;20039;-82
2021/10/06 03:38:07;;;;;;;11.65;7.22;;;18.90;84.50;;;;;;4736300;30;20056;-82
2021/10/06 03:40:33;;;;;;;12.85;9.00;;;18.90;84.70;;;;;;4736470;30;20039;-82
2021/10/06 03:42:59;;;;;;;10.75;7.93;;;18.90;84.90;;;;;;4736096;30;20029;-82
2021/10/06 03:45:25;;;;;;;13.40;8.13;;;18.90;84.80;;;;;;4720719;30;20209;-82
2021/10/06 03:47:50;;;;;;;15.18;8.63;;;18.90;84.80;;;;;;4739116;30;20043;-82
2021/10/06 03:50:18;;;;;;;12.23;8.73;;;18.90;85.50;;;;;;4738636;30;20331;-82
2021/10/06 03:52:44;;;;;;;10.40;8.10;;;18.90;85.80;;;;;;4738919;30;20195;-82
2021/10/06 03:55:11;;;;;;;12.48;7.63;;;18.90;85.90;;;;;;4738924;30;20368;-81
2021/10/06 03:57:37;;;;;;;12.07;7.22;;;18.90;85.90;;;;;;4738906;30;20036;-80
2021/10/06 04:00:06;;;;;;;14.02;9.23;;;18.90;86.20;;;;;;4753541;30;20038;-80
2021/10/06 04:02:32;;;;;;;11.15;7.97;;;18.90;86.20;;;;;;4738910;30;20036;-81
2021/10/06 04:04:57;;;;;;;13.18;8.25;;;18.90;86.40;;;;;;4753635;30;20040;-80
2021/10/06 04:07:24;;;;;;;10.88;8.15;;;18.90;86.40;;;;;;4739303;30;20060;-80
2021/10/06 04:09:49;;;;;;;8.90;7.90;;;18.90;86.60;;;;;;4739219;30;20043;-82
2021/10/06 04:12:15;;;;;;;11.02;8.27;;;18.80;86.90;;;;;;4753438;30;20024;-80
2021/10/06 04:14:41;;;;;;;12.10;8.02;;;18.90;87.00;;;;;;4739402;30;20311;-80
2021/10/06 04:17:07;;;;;;;10.52;8.07;;;18.80;87.00;;;;;;4738782;30;20048;-80
2021/10/06 04:19:32;;;;;;;13.32;8.70;;;18.70;87.30;;;;;;4753925;30;20232;-81
2021/10/06 04:21:58;;;;;;;10.43;8.15;;;18.70;87.60;;;;;;4737629;30;20035;-82
2021/10/06 04:24:24;;;;;;;12.18;8.90;;;18.70;87.90;;;;;;4752555;30;20040;-81
2021/10/06 04:26:50;;;;;;;12.68;8.65;;;18.60;88.10;;;;;;4738862;30;20028;-81
2021/10/06 04:29:15;;;;;;;11.73;8.82;;;18.50;89.30;;;;;;4738493;30;20043;-81
2021/10/06 04:31:41;;;;;;;11.50;8.55;;;18.40;89.30;;;;;;4752135;30;20060;-81
2021/10/06 04:34:07;;;;;;;14.40;9.10;;;18.30;89.50;;;;;;4752597;30;20035;-81
2021/10/06 04:36:33;;;;;;;12.45;9.20;;;18.30;90.00;;;;;;4738393;30;20059;-81
2021/10/06 04:38:58;;;;;;;11.50;9.40;;;18.30;89.90;;;;;;4738477;30;20032;-82
2021/10/06 04:41:24;;;;;;;13.35;8.75;;;18.30;90.00;;;;;;4737918;30;20028;-81
2021/10/06 04:43:50;;;;;;;13.20;9.98;;;18.30;90.00;;;;;;4752529;30;20032;-82
2021/10/06 04:46:18;;;;;;;14.80;9.43;;;18.20;90.20;;;;;;4734725;30;20116;-81
2021/10/06 04:48:47;;;;;;;17.65;10.57;;;18.20;90.50;;;;;;4751350;30;20040;-81
2021/10/06 04:51:14;;;;;;;13.15;9.57;;;18.10;90.60;;;;;;4749653;30;20028;-81
2021/10/06 04:53:40;;;;;;;15.53;10.10;;;18.10;90.80;;;;;;4750546;30;20028;-81
2021/10/06 04:56:05;;;;;;;14.10;10.02;;;18.00;91.00;;;;;;4749705;30;20051;-82
2021/10/06 04:58:31;;;;;;;15.48;10.57;;;18.00;91.30;;;;;;4734150;30;20055;-82
2021/10/06 05:00:57;;;;;;;17.60;11.60;;;17.90;91.50;;;;;;4734736;30;20048;-82
2021/10/06 05:03:23;;;;;;;20.02;11.27;;;18.00;91.90;;;;;;4750892;30;20040;-82
2021/10/06 05:05:49;;;;;;;15.90;10.65;;;17.90;92.20;;;;;;4752770;30;20032;-82
2021/10/06 05:08:14;;;;;;;16.35;12.05;;;17.90;92.50;;;;;;4737678;30;20035;-82
2021/10/06 05:10:41;;;;;;;19.08;12.90;;;17.90;92.90;;;;;;4737735;30;20032;-82
2021/10/06 05:13:06;;;;;;;16.93;12.43;;;17.90;93.00;;;;;;4737357;30;20036;-82
2021/10/06 05:15:32;;;;;;;17.58;12.48;;;17.80;93.30;;;;;;4738164;30;20067;-82
2021/10/06 05:17:58;;;;;;;21.83;13.90;;;17.80;93.40;;;;;;4738780;30;20035;-82
2021/10/06 05:20:24;;;;;;;27.63;13.27;;;17.80;93.90;;;;;;4753556;30;20040;-82
2021/10/06 05:22:49;;;;;;;21.50;14.57;;;17.70;94.00;;;;;;4738636;30;20031;-82
2021/10/06 05:25:15;;;;;;;22.80;14.30;;;17.70;94.20;;;;;;4738871;30;20032;-82
2021/10/06 05:27:41;;;;;;;30.38;14.45;;;17.60;94.40;;;;;;4739951;30;20059;-82
2021/10/06 05:30:08;;;;;;;25.33;15.15;;;17.50;94.50;;;;;;4734167;30;20095;-81
2021/10/06 05:32:35;;;;;;;33.05;15.25;;;17.50;94.50;;;;;;4764237;30;20028;-82
2021/10/06 05:35:01;;;;;;;33.17;12.70;;;17.40;94.60;;;;;;4768155;30;20042;-82
2021/10/06 05:37:27;;;;;;;33.67;14.35;;;17.30;94.60;;;;;;4749806;30;20056;-82
2021/10/06 05:39:53;;;;;;;31.50;14.02;;;17.30;94.50;;;;;;4758307;30;20035;-82
2021/10/06 05:42:22;;;;;;;25.60;13.02;;;17.20;94.20;;;;;;4758097;30;20040;-82
2021/10/06 05:44:48;;;;;;;22.27;12.70;;;17.20;94.20;;;;;;4743069;30;20036;-82
2021/10/06 05:47:14;;;;;;;31.42;13.57;;;17.20;94.30;;;;;;4725911;30;20060;-82
2021/10/06 05:49:39;;;;;;;31.60;14.23;;;17.20;94.30;;;;;;4739175;30;20034;-82
2021/10/06 05:52:05;;;;;;;35.63;13.68;;;17.20;94.40;;;;;;4747625;30;20051;-81
2021/10/06 05:54:31;;;;;;;36.75;13.85;;;17.20;94.10;;;;;;4726081;30;20323;-82
2021/10/06 05:56:59;;;;;;;39.92;13.32;;;17.30;94.10;;;;;;4739434;30;21589;-82
2021/10/06 05:59:26;;;;;;;46.25;14.25;;;17.20;94.10;;;;;;4737758;30;20095;-83
2021/10/06 06:01:51;;;;;;;48.67;15.02;;;17.10;94.60;;;;;;4734111;30;20032;-82
2021/10/06 06:04:17;;;;;;;41.88;13.52;;;17.20;94.90;;;;;;4724927;30;20063;-81
2021/10/06 06:06:44;;;;;;;30.77;15.00;;;17.20;94.90;;;;;;4741647;30;20032;-84
2021/10/06 06:09:12;;;;;;;37.28;15.88;;;17.10;95.20;;;;;;4744668;30;20083;-83
2021/10/06 06:11:38;;;;;;;26.40;14.40;;;17.10;95.40;;;;;;4725175;30;20276;-84
2021/10/06 06:14:05;;;;;;;28.63;13.43;;;17.00;95.40;;;;;;4741107;30;20062;-84
2021/10/06 06:16:31;;;;;;;37.17;14.68;;;17.00;95.50;;;;;;4731068;30;20036;-85
2021/10/06 06:18:58;;;;;;;38.55;14.77;;;17.00;95.70;;;;;;4740253;30;20071;-84
2021/10/06 06:21:24;;;;;;;32.23;14.63;;;17.00;95.70;;;;;;4723099;30;20031;-83
2021/10/06 06:23:50;;;;;;;32.97;15.70;;;17.00;95.80;;;;;;4727268;30;20059;-82
2021/10/06 06:26:16;;;;;;;44.10;15.82;;;16.90;95.90;;;;;;4740444;30;20024;-83
2021/10/06 06:28:41;;;;;;;37.97;16.33;;;17.00;96.10;;;;;;4756773;30;20081;-83
2021/10/06 06:31:10;;;;;;;37.65;13.52;;;17.00;95.90;;;;;;4756091;30;20324;-83
2021/10/06 06:33:36;;;;;;;37.28;14.38;;;16.90;96.20;;;;;;4754249;30;20085;-83
2021/10/06 06:36:06;;;;;;;32.60;14.63;;;17.00;96.40;;;;;;4729402;30;20055;-83
2021/10/06 06:38:32;;;;;;;30.90;14.93;;;17.00;96.00;;;;;;4732188;30;20106;-82
2021/10/06 06:40:57;;;;;;;32.15;13.85;;;17.10;96.00;;;;;;4759270;30;20317;-82
2021/10/06 06:43:23;;;;;;;34.22;13.23;;;17.10;96.00;;;;;;4725653;30;20039;-82
2021/10/06 06:45:49;;;;;;;31.83;14.07;;;17.10;96.10;;;;;;4723424;30;20036;-82
2021/10/06 06:48:15;;;;;;;31.02;14.02;;;17.20;96.00;;;;;;4742454;30;20076;-81
2021/10/06 06:50:41;;;;;;;26.67;12.93;;;17.30;96.00;;;;;;4734702;30;20028;-81
2021/10/06 06:53:07;;;;;;;24.80;12.63;;;17.30;95.40;;;;;;4731736;30;20039;-82
2021/10/06 06:55:33;;;;;;;40.38;12.75;;;17.30;95.30;;;;;;4743862;30;20087;-83
2021/10/06 06:57:59;;;;;;;36.67;14.52;;;17.40;95.30;;;;;;4730328;30;20095;-83
2021/10/06 07:00:25;;;;;;;31.30;14.05;;;17.40;95.10;;;;;;4733827;30;20259;-84
2021/10/06 07:02:50;;;;;;;38.38;13.35;;;17.40;95.30;;;;;;4731880;30;20024;-82
2021/10/06 07:05:16;;;;;;;36.40;14.02;;;17.30;95.10;;;;;;4747535;30;20035;-84
2021/10/06 07:07:43;;;;;;;36.05;14.82;;;17.30;95.30;;;;;;4742924;30;20043;-84
2021/10/06 07:10:09;;;;;;;34.53;13.43;;;17.30;95.50;;;;;;4740652;30;20031;-83
2021/10/06 07:12:35;;;;;;;38.70;13.65;;;17.20;95.60;;;;;;4738921;30;20331;-84
2021/10/06 07:15:01;;;;;;;28.83;14.15;;;17.20;95.40;;;;;;4730518;30;20036;-83
2021/10/06 07:17:26;;;;;;;28.17;13.07;;;17.10;95.40;;;;;;4752602;30;20078;-84
2021/10/06 07:19:52;;;;;;;35.85;14.98;;;17.20;95.30;;;;;;4718924;30;20037;-84
2021/10/06 07:22:18;;;;;;;33.03;13.82;;;17.20;95.60;;;;;;4718939;30;20261;-84
2021/10/06 07:24:45;;;;;;;41.38;14.77;;;17.10;96.00;;;;;;4727707;30;20032;-84
2021/10/06 07:27:11;;;;;;;36.58;14.35;;;17.10;95.90;;;;;;4731692;30;20036;-84
2021/10/06 07:29:38;;;;;;;26.73;13.27;;;17.10;95.60;;;;;;4729666;30;20032;-84
2021/10/06 07:32:05;;;;;;;;;;;17.00;96.10;;;;;;4742020;30;20323;-84
2021/10/06 07:34:31;;;;;;;36.15;13.38;;;17.00;95.90;;;;;;4742402;30;20197;-84
2021/10/06 07:36:56;;;;;;;29.73;14.35;;;17.00;96.20;;;;;;4740820;30;20384;-84
2021/10/06 07:39:22;;;;;;;33.30;13.38;;;17.10;96.20;;;;;;4736757;30;20055;-83
2021/10/06 07:41:48;;;;;;;29.58;14.63;;;17.10;96.00;;;;;;4734695;30;20037;-83
2021/10/06 07:44:16;;;;;;;33.25;14.55;;;17.10;96.00;;;;;;4739707;30;20083;-85
2021/10/06 07:46:42;;;;;;;30.20;14.52;;;17.10;95.40;;;;;;4756819;30;20044;-86
2021/10/06 07:49:09;;;;;;;36.22;17.50;;;17.10;95.70;;;;;;4750027;30;20042;-84
2021/10/06 07:51:36;;;;;;;55.83;22.20;;;17.00;95.80;;;;;;4734717;30;20037;-85
2021/10/06 07:54:04;;;;;;;34.33;18.88;;;16.90;96.00;;;;;;4741841;30;20020;-84
2021/10/06 07:56:30;;;;;;;36.90;19.20;;;16.90;96.20;;;;;;4727322;30;20037;-84
2021/10/06 07:58:56;;;;;;;38.50;16.10;;;16.90;96.40;;;;;;4742906;30;20140;-84
2021/10/06 08:01:22;;;;;;;34.08;17.00;;;16.90;96.70;;;;;;4736207;30;20133;-84
2021/10/06 08:03:47;;;;;;;39.13;15.65;;;17.00;96.60;;;;;;4737577;30;20085;-84
2021/10/06 08:06:13;;;;;;;41.72;15.45;;;17.00;96.60;;;;;;4737365;30;20028;-84
2021/10/06 08:08:40;;;;;;;39.10;13.70;;;17.10;96.60;;;;;;4751535;30;20074;-86
2021/10/06 08:11:05;;;;;;;33.10;14.55;;;17.00;96.50;;;;;;4736556;30;20035;-84
2021/10/06 08:13:31;;;;;;;36.28;14.68;;;17.00;96.60;;;;;;4736957;30;20039;-84
2021/10/06 08:15:57;;;;;;;34.63;13.50;;;16.90;96.80;;;;;;4751047;30;20044;-84
2021/10/06 08:18:24;;;;;;;25.80;14.63;;;17.00;96.80;;;;;;4736459;30;20136;-85
2021/10/06 08:20:52;;;;;;;28.73;13.40;;;17.00;96.80;;;;;;4736430;30;20039;-84
2021/10/06 08:23:18;;;;;;;30.42;14.52;;;16.90;96.80;;;;;;4750875;30;20328;-85
2021/10/06 08:25:45;;;;;;;34.87;14.87;;;16.90;97.20;;;;;;4735523;30;20401;-85
2021/10/06 08:28:11;;;;;;;;;;;16.90;97.20;;;;;;4749659;30;20028;-85
2021/10/06 08:30:37;;;;;;;36.63;15.73;;;16.90;97.30;;;;;;4734904;30;19993;-85
2021/10/06 08:33:04;;;;;;;28.08;15.40;;;16.90;97.60;;;;;;4735664;30;20039;-85
2021/10/06 08:35:30;;;;;;;38.15;15.38;;;16.90;97.80;;;;;;4735818;30;20407;-84
2021/10/06 08:37:56;;;;;;;36.03;15.80;;;16.90;97.70;;;;;;4736341;30;20032;-84
2021/10/06 08:40:23;;;;;;;28.13;14.07;;;16.90;97.40;;;;;;4750938;30;20270;-84
2021/10/06 08:42:49;;;;;;;41.65;18.52;;;16.80;97.90;;;;;;4735820;30;20270;-84
2021/10/06 08:45:15;;;;;;;35.73;17.60;;;16.90;98.00;;;;;;4750504;30;20036;-84
2021/10/06 08:47:42;;;;;;;30.05;19.13;;;16.90;98.30;;;;;;4736263;30;20352;-84
2021/10/06 08:50:11;;;;;;;34.20;16.73;;;16.90;98.30;;;;;;4718716;30;20119;-84
2021/10/06 08:52:37;;;;;;;42.53;17.38;;;16.60;99.00;;;;;;4733291;30;20088;-84
2021/10/06 08:55:05;;;;;;;39.38;19.25;;;16.60;99.40;;;;;;4719621;30;20041;-83
2021/10/06 08:57:32;;;;;;;36.90;16.80;;;16.60;99.50;;;;;;4722237;30;20033;-83
2021/10/06 08:59:58;;;;;;;39.25;18.27;;;16.50;99.70;;;;;;4722883;30;20132;-82
2021/10/06 09:02:24;;;;;;;34.30;19.20;;;16.50;99.90;;;;;;4740345;30;20052;-83
2021/10/06 09:04:51;;;;;;;39.13;13.75;;;16.50;99.90;;;;;;4719422;30;20052;-83
2021/10/06 09:07:17;;;;;;;13.27;8.02;;;16.50;99.90;;;;;;4718853;30;20032;-83
2021/10/06 09:09:43;;;;;;;4.38;2.92;;;16.50;99.90;;;;;;4734176;30;20111;-83
2021/10/06 09:12:15;;;;;;;6.72;2.00;;;16.30;98.80;;;;;;4726961;30;20033;-83
2021/10/06 09:14:47;;;;;;;3.83;1.90;;;16.30;99.10;;;;;;4732775;30;20047;-83
2021/10/06 09:17:18;;;;;;;2.35;1.50;;;16.20;99.10;;;;;;4732785;30;20082;-83
2021/10/06 09:19:53;;;;;;;3.10;1.33;;;16.20;99.20;;;;;;4733015;30;20063;-83
2021/10/06 09:22:21;;;;;;;3.05;0.90;;;16.10;98.70;;;;;;4733384;30;20039;-83
2021/10/06 09:25:06;;;;;;;1.67;1.20;;;16.00;98.30;;;;;;4718171;30;20048;-82
2021/10/06 09:27:38;;;;;;;3.17;1.50;;;16.10;98.30;;;;;;4739721;30;20059;-83
2021/10/06 09:30:09;;;;;;;3.05;0.98;;;16.10;97.80;;;;;;4735596;30;20082;-83
2021/10/06 09:32:41;;;;;;;4.22;0.90;;;16.10;98.30;;;;;;4750553;30;20048;-83
2021/10/06 09:35:08;;;;;;;5.82;1.20;;;16.10;97.30;;;;;;4735909;30;20212;-83
2021/10/06 09:37:36;;;;;;;1.92;1.10;;;16.10;97.80;;;;;;4735703;30;20099;-84
2021/10/06 09:40:05;;;;;;;1.20;0.90;;;16.10;97.50;;;;;;4735247;30;20066;-83
2021/10/06 09:42:46;;;;;;;4.10;0.82;;;16.10;97.20;;;;;;4735985;30;20332;-83
2021/10/06 09:45:30;;;;;;;5.30;1.25;;;16.10;97.00;;;;;;4734801;30;20040;-82
2021/10/06 09:48:15;;;;;;;3.50;0.95;;;16.20;97.10;;;;;;4745574;30;20355;-82
2021/10/06 09:50:48;;;;;;;3.83;0.95;;;16.20;96.80;;;;;;4746807;30;20048;-82
2021/10/06 09:53:20;;;;;;;4.72;0.93;;;16.10;95.90;;;;;;4749369;30;20058;-82
2021/10/06 09:55:48;;;;;;;3.42;1.63;;;16.10;96.40;;;;;;4750066;30;20040;-82
2021/10/06 09:58:16;;;;;;;2.72;1.00;;;16.10;96.30;;;;;;4735421;30;20032;-82
2021/10/06 10:00:45;;;;;;;2.15;1.05;;;16.10;96.20;;;;;;4765331;30;20239;-82
2021/10/06 10:03:11;;;;;;;3.30;0.95;;;16.10;96.30;;;;;;4749565;30;20023;-82
2021/10/06 10:05:39;;;;;;;2.78;1.13;;;16.10;95.40;;;;;;4765260;30;20088;-82
2021/10/06 10:08:06;;;;;;;2.53;0.70;;;15.90;95.80;;;;;;4730031;30;20028;-82
2021/10/06 10:10:33;;;;;;;3.83;1.00;;;16.00;96.10;;;;;;4717810;30;20327;-82
2021/10/06 10:13:00;;;;;;;1.60;0.77;;;15.90;96.10;;;;;;4733371;30;20059;-80
2021/10/06 10:15:27;;;;;;;2.40;1.10;;;16.00;96.40;;;;;;4748605;30;20043;-81
2021/10/06 10:18:03;;;;;;;3.88;1.30;;;16.10;96.10;;;;;;4754242;30;20054;-82
2021/10/06 10:20:34;;;;;;;3.70;1.00;;;16.20;95.90;;;;;;4753270;30;20135;-82
2021/10/06 10:23:03;;;;;;;3.30;1.08;;;16.30;95.90;;;;;;4739278;30;20075;-82
2021/10/06 10:25:32;;;;;;;2.90;1.00;;;16.20;95.50;;;;;;4753998;30;20350;-82
2021/10/06 10:28:14;;;;;;;2.72;0.90;;;15.90;95.90;;;;;;4738858;30;20059;-82
2021/10/06 10:31:01;;;;;;;3.42;1.05;;;16.00;96.40;;;;;;4729729;30;20068;-82
2021/10/06 10:33:47;;;;;;;4.45;1.15;;;16.00;96.50;;;;;;4746804;30;20059;-82
2021/10/06 10:36:40;;;;;;;5.88;1.10;;;16.00;96.70;;;;;;4753031;30;20054;-82
2021/10/06 10:39:28;;;;;;;5.32;1.05;;;16.20;96.50;;;;;;4738885;30;20043;-82
2021/10/06 10:41:56;;;;;;;1.58;0.90;;;16.20;96.00;;;;;;4753682;30;20068;-83
2021/10/06 10:44:30;;;;;;;2.92;1.25;;;16.20;96.40;;;;;;4754044;30;20036;-82
2021/10/06 10:47:03;;;;;;;1.95;0.90;;;16.10;95.80;;;;;;4759892;30;20340;-82
2021/10/06 10:49:46;;;;;;;2.70;0.93;;;16.10;96.50;;;;;;4721347;30;20028;-82
2021/10/06 10:52:15;;;;;;;3.92;1.10;;;16.10;96.70;;;;;;4735030;30;20036;-82
2021/10/06 10:54:43;;;;;;;6.03;1.20;;;16.20;96.60;;;;;;4721658;30;20025;-82
2021/10/06 10:57:28;;;;;;;1.55;0.70;;;16.10;96.30;;;;;;4736030;30;20036;-82
2021/10/06 10:59:58;;;;;;;1.85;0.80;;;16.00;96.20;;;;;;4721487;30;20281;-82
2021/10/06 11:02:31;;;;;;;1.23;0.80;;;15.90;96.60;;;;;;4720980;30;20059;-82
2021/10/06 11:05:00;;;;;;;4.30;0.80;;;15.90;97.10;;;;;;4721437;30;20051;-82
2021/10/06 11:07:26;;;;;;;1.80;0.80;;;15.90;97.20;;;;;;4734743;30;20205;-82
2021/10/06 11:09:59;;;;;;;5.28;0.60;;;15.90;96.90;;;;;;4719772;30;20037;-84
2021/10/06 11:12:25;;;;;;;1.60;0.80;;;15.90;96.90;;;;;;4720175;30;20043;-84
2021/10/06 11:15:12;;;;;;;14.60;1.60;;;15.80;97.50;;;;;;4719710;30;20032;-84
2021/10/06 11:18:07;;;;;;;3.03;1.00;;;15.70;98.10;;;;;;4733711;30;20043;-83
2021/10/06 11:20:47;;;;;;;1.85;0.88;;;15.80;98.60;;;;;;4751687;30;20065;-84
2021/10/06 11:23:31;;;;;;;1.27;1.00;;;15.80;97.20;;;;;;4737156;30;20036;-83
2021/10/06 11:26:19;;;;;;;1.92;0.77;;;15.80;98.00;;;;;;4751566;30;20312;-82
2021/10/06 11:28:47;;;;;;;1.77;0.93;;;15.80;98.20;;;;;;4738058;30;20321;-82
2021/10/06 11:31:16;;;;;;;3.17;1.25;;;15.70;97.20;;;;;;4752485;30;20089;-82
2021/10/06 11:33:42;;;;;;;4.85;1.02;;;15.70;97.30;;;;;;4751833;30;20040;-81
2021/10/06 11:36:16;;;;;;;15.57;1.63;;;15.70;97.40;;;;;;4751894;30;20316;-81
2021/10/06 11:38:45;;;;;;;6.07;1.95;;;15.70;97.00;;;;;;4737397;30;20023;-82
2021/10/06 11:41:12;;;;;;;13.60;1.23;;;15.80;97.50;;;;;;4737158;30;20036;-82
2021/10/06 11:43:49;;;;;;;6.40;1.13;;;15.70;97.10;;;;;;4734837;30;20028;-82
2021/10/06 11:46:17;;;;;;;3.55;1.00;;;15.80;97.50;;;;;;4732416;30;20052;-83
2021/10/06 11:48:47;;;;;;;6.47;1.10;;;15.80;97.00;;;;;;4721973;30;20024;-82
2021/10/06 11:51:13;;;;;;;2.67;0.95;;;15.80;97.20;;;;;;4744615;30;20032;-82
2021/10/06 11:53:44;;;;;;;5.88;1.70;;;15.80;97.20;;;;;;4744826;30;20058;-82
2021/10/06 11:56:21;;;;;;;6.70;1.25;;;15.90;97.20;;;;;;4737320;30;20335;-82
2021/10/06 11:58:47;;;;;;;5.35;1.63;;;15.80;97.00;;;;;;4728609;30;20043;-81
2021/10/06 12:01:13;;;;;;;5.05;1.45;;;15.80;97.40;;;;;;4734021;30;20048;-82
2021/10/06 12:03:40;;;;;;;13.10;1.65;;;15.80;97.10;;;;;;4734469;30;20362;-82
2021/10/06 12:06:09;;;;;;;6.07;1.45;;;15.90;97.70;;;;;;4750603;30;20067;-82
2021/10/06 12:08:36;;;;;;;4.25;1.50;;;16.00;97.10;;;;;;4736302;30;20032;-82
2021/10/06 12:11:03;;;;;;;6.32;1.67;;;16.10;97.60;;;;;;4751196;30;20087;-82
2021/10/06 12:13:40;;;;;;;3.70;1.58;;;16.30;97.20;;;;;;4736598;30;20040;-83
2021/10/06 12:16:42;;;;;;;;;;;16.40;96.10;;;;;;4735619;30;20386;-83
2021/10/06 12:19:07;;;;;;;6.13;1.65;;;16.30;96.90;;;;;;4729830;30;19911;-82
2021/10/06 12:21:33;;;;;;;4.47;1.63;;;16.20;96.80;;;;;;4712802;30;20041;-82
2021/10/06 12:24:19;;;;;;;7.03;1.83;;;16.20;96.80;;;;;;4707434;30;20037;-82
2021/10/06 12:26:47;;;;;;;10.00;2.42;;;16.00;96.70;;;;;;4726849;30;20071;-82
2021/10/06 12:29:14;;;;;;;6.20;1.65;;;16.00;96.80;;;;;;4720524;30;20025;-82
2021/10/06 12:31:42;;;;;;;8.95;1.77;;;16.00;97.40;;;;;;4706854;30;20103;-82
2021/10/06 12:34:18;;;;;;;4.13;1.70;;;16.00;97.60;;;;;;4716914;30;20325;-82
2021/10/06 12:36:55;;;;;;;8.60;2.20;;;16.00;97.20;;;;;;4725688;30;20055;-82
2021/10/06 12:39:26;;;;;;;8.05;1.60;;;16.00;97.10;;;;;;4744673;30;20041;-82
2021/10/06 12:41:55;;;;;;;4.63;2.35;;;16.10;97.50;;;;;;4724821;30;20063;-81
2021/10/06 12:44:20;;;;;;;9.27;2.00;;;16.10;97.20;;;;;;4704156;30;20041;-81
2021/10/06 12:46:46;;;;;;;8.98;1.38;;;16.10;97.20;;;;;;4722557;30;20107;-81
2021/10/06 12:49:13;;;;;;;6.95;2.50;;;16.10;97.20;;;;;;4727233;30;20045;-81
2021/10/06 12:51:41;;;;;;;4.43;1.48;;;16.10;97.50;;;;;;4722692;30;20383;-79
2021/10/06 12:54:15;;;;;;;5.22;1.73;;;16.10;96.50;;;;;;4742941;30;20127;-80
2021/10/06 12:56:53;;;;;;;8.63;1.75;;;16.00;97.10;;;;;;4740158;30;20036;-80
2021/10/06 12:59:28;;;;;;;4.47;1.67;;;16.00;97.20;;;;;;4751990;30;20042;-80
2021/10/06 13:01:55;;;;;;;4.22;1.20;;;15.90;96.60;;;;;;4736833;30;20036;-80
2021/10/06 13:04:21;;;;;;;6.90;1.83;;;15.90;96.40;;;;;;4742601;30;20240;-79
2021/10/06 13:06:49;;;;;;;5.68;2.05;;;15.90;96.60;;;;;;4720346;30;20044;-80
2021/10/06 13:09:15;;;;;;;5.32;1.40;;;15.80;96.40;;;;;;4734353;30;20032;-79
2021/10/06 13:11:43;;;;;;;8.70;1.95;;;15.80;96.60;;;;;;4721742;30;20319;-80
2021/10/06 13:14:10;;;;;;;3.17;1.60;;;15.70;96.60;;;;;;4759489;30;20023;-79
2021/10/06 13:16:36;;;;;;;6.10;2.00;;;15.70;97.00;;;;;;4733859;30;20039;-79
2021/10/06 13:19:03;;;;;;;6.22;1.73;;;15.70;97.00;;;;;;4746038;30;20044;-80
2021/10/06 13:21:30;;;;;;;4.32;2.10;;;15.80;96.80;;;;;;4735808;30;20271;-80
2021/10/06 13:23:58;;;;;;;4.13;1.38;;;15.70;96.70;;;;;;4738888;30;20048;-80
2021/10/06 13:26:23;;;;;;;4.85;1.15;;;15.60;96.60;;;;;;4747348;30;20099;-80
2021/10/06 13:28:50;;;;;;;3.45;1.50;;;15.60;96.90;;;;;;4734910;30;20320;-80
2021/10/06 13:31:17;;;;;;;5.25;1.42;;;15.60;96.90;;;;;;4739011;30;20057;-80
2021/10/06 13:33:43;;;;;;;4.47;1.23;;;15.50;96.60;;;;;;4737954;30;20060;-80
2021/10/06 13:36:09;;;;;;;3.55;1.25;;;15.60;96.40;;;;;;4737030;30;20036;-80
2021/10/06 13:38:36;;;;;;;5.47;1.40;;;15.50;96.20;;;;;;4737213;30;20040;-80
2021/10/06 13:41:03;;;;;;;5.43;1.67;;;15.70;96.50;;;;;;4753532;30;20036;-79
2021/10/06 13:43:28;;;;;;;12.13;1.63;;;15.70;96.60;;;;;;4737823;30;20044;-80
2021/10/06 13:45:54;;;;;;;3.53;1.05;;;15.70;96.40;;;;;;4751329;30;20299;-81
2021/10/06 13:48:20;;;;;;;5.75;1.75;;;15.60;96.00;;;;;;4754868;30;20040;-80
2021/10/06 13:50:46;;;;;;;3.42;1.10;;;15.60;96.10;;;;;;4742157;30;20028;-81
2021/10/06 13:53:11;;;;;;;9.10;2.30;;;15.50;96.50;;;;;;4755805;30;20064;-80
2021/10/06 13:55:37;;;;;;;4.35;1.70;;;15.60;96.50;;;;;;4754030;30;20073;-81
2021/10/06 13:58:03;;;;;;;3.53;1.10;;;15.50;96.50;;;;;;4752812;30;20288;-82
2021/10/06 14:00:31;;;;;;;5.55;1.80;;;15.40;96.50;;;;;;4738677;30;20036;-81
2021/10/06 14:03:01;;;;;;;3.13;1.30;;;15.30;96.50;;;;;;4738947;30;20046;-82
2021/10/06 14:05:29;;;;;;;5.32;1.48;;;15.30;96.60;;;;;;4752223;30;20028;-83
2021/10/06 14:07:54;;;;;;;;;;;15.30;96.20;;;;;;4729537;30;20045;-83
2021/10/06 14:10:36;;;;;;;3.08;1.23;;;15.30;96.10;;;;;;4732923;30;20322;-83
2021/10/06 14:13:02;;;;;;;5.93;1.05;;;15.20;96.10;;;;;;4737458;30;20068;-82
2021/10/06 14:15:29;;;;;;;5.18;1.20;;;15.20;95.80;;;;;;4729667;30;20055;-83
2021/10/06 14:17:56;;;;;;;2.07;1.17;;;15.10;96.10;;;;;;4727808;30;20056;-82
2021/10/06 14:20:22;;;;;;;6.20;1.58;;;15.00;95.60;;;;;;4702385;30;20112;-82
2021/10/06 14:22:49;;;;;;;5.03;1.50;;;15.00;96.30;;;;;;4727862;30;20398;-82
2021/10/06 14:25:16;;;;;;;3.22;1.20;;;15.00;96.50;;;;;;4728825;30;20065;-82
2021/10/06 14:27:41;;;;;;;4.05;1.25;;;15.00;95.30;;;;;;4728366;30;20106;-82
2021/10/06 14:30:10;;;;;;;5.90;1.98;;;14.90;96.40;;;;;;4729182;30;20037;-83
2021/10/06 14:32:38;;;;;;;7.38;1.73;;;14.90;96.40;;;;;;4729842;30;20075;-83
2021/10/06 14:35:05;;;;;;;2.90;1.27;;;14.90;96.60;;;;;;4729521;30;20056;-82
2021/10/06 14:37:32;;;;;;;2.45;1.08;;;14.90;96.70;;;;;;4714967;30;20032;-83
2021/10/06 14:39:59;;;;;;;5.35;1.45;;;14.90;96.50;;;;;;4728161;30;20045;-82
2021/10/06 14:42:26;;;;;;;4.22;0.93;;;14.90;96.70;;;;;;4729473;30;20100;-83
2021/10/06 14:44:54;;;;;;;2.50;1.15;;;14.90;96.20;;;;;;4732870;30;20048;-83
2021/10/06 14:47:23;;;;;;;;;;;14.90;96.70;;;;;;4752134;30;20213;-84
2021/10/06 14:49:52;;;;;;;2.92;1.25;;;14.90;96.50;;;;;;4738239;30;19945;-84
2021/10/06 14:52:19;;;;;;;4.60;1.10;;;14.90;96.70;;;;;;4753154;30;20038;-84
2021/10/06 14:54:49;;;;;;;2.85;1.40;;;14.90;96.70;;;;;;4738378;30;20036;-84
2021/10/06 14:57:15;;;;;;;4.20;1.63;;;14.80;96.50;;;;;;4768994;30;20032;-83
2021/10/06 14:59:42;;;;;;;5.60;1.60;;;14.70;96.90;;;;;;4737514;30;20028;-84
2021/10/06 15:02:08;;;;;;;2.70;1.25;;;14.70;97.00;;;;;;4753110;30;20032;-84
2021/10/06 15:04:34;;;;;;;2.15;0.75;;;14.80;97.50;;;;;;4737876;30;20051;-84
2021/10/06 15:07:01;;;;;;;3.72;1.10;;;14.70;96.20;;;;;;4737836;30;20024;-85
2021/10/06 15:09:27;;;;;;;3.35;1.10;;;14.60;96.80;;;;;;4737993;30;20205;-85
2021/10/06 15:11:55;;;;;;;2.80;1.10;;;14.60;96.90;;;;;;4737917;30;20051;-84
2021/10/06 15:14:21;;;;;;;10.00;2.25;;;14.60;96.70;;;;;;4738754;30;20043;-85
2021/10/06 15:16:47;;;;;;;3.27;1.10;;;14.70;96.80;;;;;;4731008;30;20032;-84
2021/10/06 15:19:14;;;;;;;2.23;1.17;;;14.60;96.70;;;;;;4720996;30;20310;-84
2021/10/06 15:21:40;;;;;;;5.77;1.50;;;14.60;97.10;;;;;;4735977;30;20228;-84
2021/10/06 15:24:06;;;;;;;2.87;1.00;;;14.60;97.00;;;;;;4736100;30;20362;-84
2021/10/06 15:26:33;;;;;;;7.75;1.40;;;14.60;96.80;;;;;;4736627;30;20056;-84
2021/10/06 15:29:01;;;;;;;4.60;1.45;;;14.60;96.80;;;;;;4753289;30;20398;-84
2021/10/06 15:31:28;;;;;;;4.93;1.85;;;14.60;97.10;;;;;;4739821;30;20036;-84